sensor_id;sensor_type;location;lat;lon;timestamp;P1;durP1;ratioP1;P2;durP2;ratioP2
55879;SDS011;41802;51.564;-1.838;2023-11-22T00:01:05;10.52;;;4.30;;
55879;SDS011;41802;51.564;-1.838;2023-11-22T00:03:33;15.05;;;4.28;;
55879;SDS011;41802;51.564;-1.838;2023-11-22T00:06:02;11.35;;;4.15;;
55879;SDS011;41802;51.564;-1.838;2023-11-22T00:08:30;11.73;;;4.20;;
55879;SDS011;41802;51.564;-1.838;2023-11-22T00:10:58;10.57;;;3.77;;
55879;SDS011;41802;51.564;-1.838;2023-11-22T00:13:26;13.95;;;5.15;;
55879;SDS011;41802;51.564;-1.838;2023-11-22T00:15:54;15.07;;;4.50;;
55879;SDS011;41802;51.564;-1.838;2023-11-22T00:18:23;9.70;;;4.10;;
55879;SDS011;41802;51.564;-1.838;2023-11-22T00:20:52;12.63;;;3.90;;
55879;SDS011;41802;51.564;-1.838;2023-11-22T00:23:22;12.03;;;4.30;;
55879;SDS011;41802;51.564;-1.838;2023-11-22T00:25:54;11.57;;;4.65;;
55879;SDS011;41802;51.564;-1.838;2023-11-22T00:28:23;13.15;;;4.40;;
55879;SDS011;41802;51.564;-1.838;2023-11-22T00:30:51;16.83;;;4.35;;
55879;SDS011;41802;51.564;-1.838;2023-11-22T00:33:22;13.80;;;4.40;;
55879;SDS011;41802;51.564;-1.838;2023-11-22T00:35:50;9.83;;;3.90;;
55879;SDS011;41802;51.564;-1.838;2023-11-22T00:38:19;12.50;;;3.85;;
55879;SDS011;41802;51.564;-1.838;2023-11-22T00:40:48;12.57;;;4.38;;
55879;SDS011;41802;51.564;-1.838;2023-11-22T00:43:16;13.25;;;4.45;;
55879;SDS011;41802;51.564;-1.838;2023-11-22T00:45:45;10.60;;;4.05;;
55879;SDS011;41802;51.564;-1.838;2023-11-22T00:48:13;13.10;;;4.50;;
55879;SDS011;41802;51.564;-1.838;2023-11-22T00:50:40;14.02;;;4.38;;
55879;SDS011;41802;51.564;-1.838;2023-11-22T00:53:08;12.68;;;4.50;;
55879;SDS011;41802;51.564;-1.838;2023-11-22T00:55:36;12.30;;;4.85;;
55879;SDS011;41802;51.564;-1.838;2023-11-22T00:58:05;11.63;;;4.30;;
55879;SDS011;41802;51.564;-1.838;2023-11-22T01:00:33;12.77;;;4.60;;
55879;SDS011;41802;51.564;-1.838;2023-11-22T01:03:01;12.30;;;4.63;;
55879;SDS011;41802;51.564;-1.838;2023-11-22T01:05:31;9.98;;;4.10;;
55879;SDS011;41802;51.564;-1.838;2023-11-22T01:07:59;10.98;;;4.80;;
55879;SDS011;41802;51.564;-1.838;2023-11-22T01:10:27;10.93;;;4.32;;
55879;SDS011;41802;51.564;-1.838;2023-11-22T01:12:54;11.57;;;5.30;;
55879;SDS011;41802;51.564;-1.838;2023-11-22T01:15:23;14.55;;;4.68;;
55879;SDS011;41802;51.564;-1.838;2023-11-22T01:17:51;12.75;;;4.63;;
55879;SDS011;41802;51.564;-1.838;2023-11-22T01:20:20;13.88;;;5.32;;
55879;SDS011;41802;51.564;-1.838;2023-11-22T01:22:49;11.07;;;4.72;;
55879;SDS011;41802;51.564;-1.838;2023-11-22T01:25:16;15.77;;;5.20;;
55879;SDS011;41802;51.564;-1.838;2023-11-22T01:27:44;12.27;;;5.00;;
55879;SDS011;41802;51.564;-1.838;2023-11-22T01:30:12;13.48;;;4.68;;
55879;SDS011;41802;51.564;-1.838;2023-11-22T01:32:41;13.80;;;5.18;;
55879;SDS011;41802;51.564;-1.838;2023-11-22T01:35:08;13.77;;;4.68;;
55879;SDS011;41802;51.564;-1.838;2023-11-22T01:37:36;12.30;;;5.37;;
55879;SDS011;41802;51.564;-1.838;2023-11-22T01:40:04;14.70;;;5.22;;
55879;SDS011;41802;51.564;-1.838;2023-11-22T01:42:34;11.63;;;4.95;;
55879;SDS011;41802;51.564;-1.838;2023-11-22T01:45:03;14.82;;;4.55;;
55879;SDS011;41802;51.564;-1.838;2023-11-22T01:47:31;11.70;;;5.05;;
55879;SDS011;41802;51.564;-1.838;2023-11-22T01:50:00;16.70;;;5.40;;
55879;SDS011;41802;51.564;-1.838;2023-11-22T01:52:29;13.77;;;4.95;;
55879;SDS011;41802;51.564;-1.838;2023-11-22T01:54:57;14.98;;;4.75;;
55879;SDS011;41802;51.564;-1.838;2023-11-22T01:57:25;13.32;;;4.78;;
55879;SDS011;41802;51.564;-1.838;2023-11-22T01:59:52;12.23;;;5.10;;
55879;SDS011;41802;51.564;-1.838;2023-11-22T02:02:20;13.33;;;4.97;;
55879;SDS011;41802;51.564;-1.838;2023-11-22T02:04:48;10.82;;;4.85;;
55879;SDS011;41802;51.564;-1.838;2023-11-22T02:07:17;11.60;;;4.90;;
55879;SDS011;41802;51.564;-1.838;2023-11-22T02:09:45;13.07;;;4.45;;
55879;SDS011;41802;51.564;-1.838;2023-11-22T02:12:13;11.95;;;5.45;;
55879;SDS011;41802;51.564;-1.838;2023-11-22T02:14:40;12.93;;;5.20;;
55879;SDS011;41802;51.564;-1.838;2023-11-22T02:17:08;12.82;;;5.22;;
55879;SDS011;41802;51.564;-1.838;2023-11-22T02:19:36;14.57;;;5.32;;
55879;SDS011;41802;51.564;-1.838;2023-11-22T02:22:04;14.60;;;5.38;;
55879;SDS011;41802;51.564;-1.838;2023-11-22T02:24:35;12.88;;;5.53;;
55879;SDS011;41802;51.564;-1.838;2023-11-22T02:27:03;15.30;;;5.90;;
55879;SDS011;41802;51.564;-1.838;2023-11-22T02:29:31;12.98;;;5.18;;
55879;SDS011;41802;51.564;-1.838;2023-11-22T02:31:58;16.95;;;5.32;;
55879;SDS011;41802;51.564;-1.838;2023-11-22T02:34:26;14.45;;;5.40;;
55879;SDS011;41802;51.564;-1.838;2023-11-22T02:36:54;17.60;;;5.80;;
55879;SDS011;41802;51.564;-1.838;2023-11-22T02:39:43;11.10;;;5.10;;
55879;SDS011;41802;51.564;-1.838;2023-11-22T02:42:14;13.05;;;5.07;;
55879;SDS011;41802;51.564;-1.838;2023-11-22T02:44:42;13.68;;;5.15;;
55879;SDS011;41802;51.564;-1.838;2023-11-22T02:47:10;10.82;;;4.88;;
55879;SDS011;41802;51.564;-1.838;2023-11-22T02:49:41;11.68;;;4.75;;
55879;SDS011;41802;51.564;-1.838;2023-11-22T02:52:10;13.07;;;5.17;;
55879;SDS011;41802;51.564;-1.838;2023-11-22T02:54:42;14.82;;;5.28;;
55879;SDS011;41802;51.564;-1.838;2023-11-22T02:57:10;15.35;;;6.22;;
55879;SDS011;41802;51.564;-1.838;2023-11-22T02:59:42;12.25;;;5.15;;
55879;SDS011;41802;51.564;-1.838;2023-11-22T03:02:10;13.57;;;5.65;;
55879;SDS011;41802;51.564;-1.838;2023-11-22T03:04:37;15.07;;;6.00;;
55879;SDS011;41802;51.564;-1.838;2023-11-22T03:07:05;15.80;;;5.13;;
55879;SDS011;41802;51.564;-1.838;2023-11-22T03:09:33;15.05;;;6.30;;
55879;SDS011;41802;51.564;-1.838;2023-11-22T03:12:00;14.30;;;5.93;;
55879;SDS011;41802;51.564;-1.838;2023-11-22T03:14:29;17.13;;;6.03;;
55879;SDS011;41802;51.564;-1.838;2023-11-22T03:16:58;13.03;;;5.70;;
55879;SDS011;41802;51.564;-1.838;2023-11-22T03:19:26;14.13;;;5.82;;
55879;SDS011;41802;51.564;-1.838;2023-11-22T03:21:55;17.58;;;6.00;;
55879;SDS011;41802;51.564;-1.838;2023-11-22T03:24:23;13.90;;;5.88;;
55879;SDS011;41802;51.564;-1.838;2023-11-22T03:26:51;13.43;;;5.88;;
55879;SDS011;41802;51.564;-1.838;2023-11-22T03:29:19;14.93;;;6.40;;
55879;SDS011;41802;51.564;-1.838;2023-11-22T03:31:47;17.30;;;5.43;;
55879;SDS011;41802;51.564;-1.838;2023-11-22T03:34:16;15.55;;;6.78;;
55879;SDS011;41802;51.564;-1.838;2023-11-22T03:36:43;15.65;;;5.93;;
55879;SDS011;41802;51.564;-1.838;2023-11-22T03:39:11;15.57;;;6.95;;
55879;SDS011;41802;51.564;-1.838;2023-11-22T03:41:41;13.43;;;6.17;;
55879;SDS011;41802;51.564;-1.838;2023-11-22T03:44:09;13.75;;;6.47;;
55879;SDS011;41802;51.564;-1.838;2023-11-22T03:46:37;13.82;;;6.15;;
55879;SDS011;41802;51.564;-1.838;2023-11-22T03:49:05;15.52;;;6.25;;
55879;SDS011;41802;51.564;-1.838;2023-11-22T03:51:34;14.80;;;6.10;;
55879;SDS011;41802;51.564;-1.838;2023-11-22T03:54:03;15.17;;;5.90;;
55879;SDS011;41802;51.564;-1.838;2023-11-22T03:56:30;12.52;;;6.25;;
55879;SDS011;41802;51.564;-1.838;2023-11-22T03:58:58;17.20;;;6.97;;
55879;SDS011;41802;51.564;-1.838;2023-11-22T04:01:26;16.30;;;6.20;;
55879;SDS011;41802;51.564;-1.838;2023-11-22T04:03:54;16.48;;;6.80;;
55879;SDS011;41802;51.564;-1.838;2023-11-22T04:06:21;12.07;;;5.60;;
55879;SDS011;41802;51.564;-1.838;2023-11-22T04:08:50;16.90;;;5.97;;
55879;SDS011;41802;51.564;-1.838;2023-11-22T04:11:19;12.55;;;5.70;;
55879;SDS011;41802;51.564;-1.838;2023-11-22T04:13:48;14.43;;;6.50;;
55879;SDS011;41802;51.564;-1.838;2023-11-22T04:16:16;16.50;;;6.35;;
55879;SDS011;41802;51.564;-1.838;2023-11-22T04:18:44;16.80;;;6.23;;
55879;SDS011;41802;51.564;-1.838;2023-11-22T04:21:12;14.63;;;6.05;;
55879;SDS011;41802;51.564;-1.838;2023-11-22T04:23:40;14.60;;;6.35;;
55879;SDS011;41802;51.564;-1.838;2023-11-22T04:26:10;15.30;;;6.07;;
55879;SDS011;41802;51.564;-1.838;2023-11-22T04:28:38;14.77;;;6.30;;
55879;SDS011;41802;51.564;-1.838;2023-11-22T04:31:05;14.00;;;6.43;;
55879;SDS011;41802;51.564;-1.838;2023-11-22T04:33:35;16.63;;;6.25;;
55879;SDS011;41802;51.564;-1.838;2023-11-22T04:36:04;13.73;;;6.18;;
55879;SDS011;41802;51.564;-1.838;2023-11-22T04:38:33;19.02;;;6.82;;
55879;SDS011;41802;51.564;-1.838;2023-11-22T04:41:02;14.30;;;6.85;;
55879;SDS011;41802;51.564;-1.838;2023-11-22T04:43:31;16.83;;;6.70;;
55879;SDS011;41802;51.564;-1.838;2023-11-22T04:45:59;16.63;;;6.55;;
55879;SDS011;41802;51.564;-1.838;2023-11-22T04:48:26;16.15;;;6.40;;
55879;SDS011;41802;51.564;-1.838;2023-11-22T04:50:54;15.50;;;6.50;;
55879;SDS011;41802;51.564;-1.838;2023-11-22T04:53:22;15.07;;;6.20;;
55879;SDS011;41802;51.564;-1.838;2023-11-22T04:55:50;13.47;;;6.07;;
55879;SDS011;41802;51.564;-1.838;2023-11-22T04:58:17;12.63;;;6.43;;
55879;SDS011;41802;51.564;-1.838;2023-11-22T05:00:47;13.65;;;6.68;;
55879;SDS011;41802;51.564;-1.838;2023-11-22T05:03:14;17.65;;;6.75;;
55879;SDS011;41802;51.564;-1.838;2023-11-22T05:05:42;15.80;;;6.78;;
55879;SDS011;41802;51.564;-1.838;2023-11-22T05:08:10;16.90;;;6.93;;
55879;SDS011;41802;51.564;-1.838;2023-11-22T05:10:38;18.50;;;7.65;;
55879;SDS011;41802;51.564;-1.838;2023-11-22T05:13:05;16.40;;;6.07;;
55879;SDS011;41802;51.564;-1.838;2023-11-22T05:15:33;16.38;;;6.75;;
55879;SDS011;41802;51.564;-1.838;2023-11-22T05:18:02;17.33;;;7.10;;
55879;SDS011;41802;51.564;-1.838;2023-11-22T05:20:32;15.10;;;6.57;;
55879;SDS011;41802;51.564;-1.838;2023-11-22T05:23:00;14.60;;;6.57;;
55879;SDS011;41802;51.564;-1.838;2023-11-22T05:25:29;17.60;;;7.53;;
55879;SDS011;41802;51.564;-1.838;2023-11-22T05:27:56;14.73;;;6.70;;
55879;SDS011;41802;51.564;-1.838;2023-11-22T05:30:25;16.98;;;6.40;;
55879;SDS011;41802;51.564;-1.838;2023-11-22T05:32:53;15.90;;;7.07;;
55879;SDS011;41802;51.564;-1.838;2023-11-22T05:35:22;17.35;;;6.45;;
55879;SDS011;41802;51.564;-1.838;2023-11-22T05:37:50;15.40;;;7.03;;
55879;SDS011;41802;51.564;-1.838;2023-11-22T05:40:18;16.10;;;6.85;;
55879;SDS011;41802;51.564;-1.838;2023-11-22T05:42:45;15.93;;;6.68;;
55879;SDS011;41802;51.564;-1.838;2023-11-22T05:45:13;17.23;;;6.90;;
55879;SDS011;41802;51.564;-1.838;2023-11-22T05:47:40;14.48;;;6.40;;
55879;SDS011;41802;51.564;-1.838;2023-11-22T05:50:09;18.00;;;6.95;;
55879;SDS011;41802;51.564;-1.838;2023-11-22T05:52:38;16.63;;;6.75;;
55879;SDS011;41802;51.564;-1.838;2023-11-22T05:55:06;15.85;;;7.20;;
55879;SDS011;41802;51.564;-1.838;2023-11-22T05:57:35;16.33;;;6.90;;
55879;SDS011;41802;51.564;-1.838;2023-11-22T06:00:02;18.27;;;7.30;;
55879;SDS011;41802;51.564;-1.838;2023-11-22T06:02:30;19.90;;;7.57;;
55879;SDS011;41802;51.564;-1.838;2023-11-22T06:04:58;18.85;;;7.50;;
55879;SDS011;41802;51.564;-1.838;2023-11-22T06:07:26;16.42;;;7.38;;
55879;SDS011;41802;51.564;-1.838;2023-11-22T06:09:55;16.93;;;7.13;;
55879;SDS011;41802;51.564;-1.838;2023-11-22T06:12:23;18.10;;;7.47;;
55879;SDS011;41802;51.564;-1.838;2023-11-22T06:15:08;16.05;;;7.35;;
55879;SDS011;41802;51.564;-1.838;2023-11-22T06:17:36;16.50;;;7.47;;
55879;SDS011;41802;51.564;-1.838;2023-11-22T06:20:04;20.75;;;8.45;;
55879;SDS011;41802;51.564;-1.838;2023-11-22T06:22:33;13.47;;;6.40;;
55879;SDS011;41802;51.564;-1.838;2023-11-22T06:25:02;17.70;;;7.32;;
55879;SDS011;41802;51.564;-1.838;2023-11-22T06:27:31;16.00;;;7.88;;
55879;SDS011;41802;51.564;-1.838;2023-11-22T06:29:59;18.52;;;7.28;;
55879;SDS011;41802;51.564;-1.838;2023-11-22T06:32:27;18.58;;;7.50;;
55879;SDS011;41802;51.564;-1.838;2023-11-22T06:34:55;21.60;;;7.23;;
55879;SDS011;41802;51.564;-1.838;2023-11-22T06:37:24;16.10;;;7.30;;
55879;SDS011;41802;51.564;-1.838;2023-11-22T06:39:52;17.48;;;7.80;;
55879;SDS011;41802;51.564;-1.838;2023-11-22T06:42:21;18.38;;;6.93;;
55879;SDS011;41802;51.564;-1.838;2023-11-22T06:44:49;21.83;;;7.28;;
55879;SDS011;41802;51.564;-1.838;2023-11-22T06:47:19;18.37;;;6.80;;
55879;SDS011;41802;51.564;-1.838;2023-11-22T06:49:51;15.73;;;7.15;;
55879;SDS011;41802;51.564;-1.838;2023-11-22T06:52:19;16.45;;;7.30;;
55879;SDS011;41802;51.564;-1.838;2023-11-22T06:54:47;16.58;;;7.60;;
55879;SDS011;41802;51.564;-1.838;2023-11-22T06:57:15;18.35;;;7.43;;
55879;SDS011;41802;51.564;-1.838;2023-11-22T06:59:44;19.30;;;7.30;;
55879;SDS011;41802;51.564;-1.838;2023-11-22T07:02:12;17.75;;;7.05;;
55879;SDS011;41802;51.564;-1.838;2023-11-22T07:04:40;18.15;;;7.70;;
55879;SDS011;41802;51.564;-1.838;2023-11-22T07:07:08;16.83;;;6.57;;
55879;SDS011;41802;51.564;-1.838;2023-11-22T07:09:37;15.95;;;7.10;;
55879;SDS011;41802;51.564;-1.838;2023-11-22T07:12:09;15.90;;;7.03;;
55879;SDS011;41802;51.564;-1.838;2023-11-22T07:14:36;16.38;;;6.95;;
55879;SDS011;41802;51.564;-1.838;2023-11-22T07:17:05;21.30;;;8.00;;
55879;SDS011;41802;51.564;-1.838;2023-11-22T07:19:33;17.17;;;7.25;;
55879;SDS011;41802;51.564;-1.838;2023-11-22T07:22:04;17.70;;;7.93;;
55879;SDS011;41802;51.564;-1.838;2023-11-22T07:24:42;17.50;;;7.60;;
55879;SDS011;41802;51.564;-1.838;2023-11-22T07:27:11;18.52;;;7.45;;
55879;SDS011;41802;51.564;-1.838;2023-11-22T07:29:39;16.45;;;7.50;;
55879;SDS011;41802;51.564;-1.838;2023-11-22T07:32:09;18.13;;;7.30;;
55879;SDS011;41802;51.564;-1.838;2023-11-22T07:34:38;17.20;;;7.03;;
55879;SDS011;41802;51.564;-1.838;2023-11-22T07:37:07;16.90;;;6.97;;
55879;SDS011;41802;51.564;-1.838;2023-11-22T07:39:35;16.58;;;7.57;;
55879;SDS011;41802;51.564;-1.838;2023-11-22T07:42:04;16.13;;;6.82;;
55879;SDS011;41802;51.564;-1.838;2023-11-22T07:44:34;20.05;;;6.97;;
55879;SDS011;41802;51.564;-1.838;2023-11-22T07:47:02;18.48;;;7.90;;
55879;SDS011;41802;51.564;-1.838;2023-11-22T07:49:38;15.37;;;6.93;;
55879;SDS011;41802;51.564;-1.838;2023-11-22T07:52:05;21.00;;;7.03;;
55879;SDS011;41802;51.564;-1.838;2023-11-22T07:54:33;15.52;;;6.38;;
55879;SDS011;41802;51.564;-1.838;2023-11-22T07:57:02;20.23;;;7.07;;
55879;SDS011;41802;51.564;-1.838;2023-11-22T07:59:30;19.45;;;7.15;;
55879;SDS011;41802;51.564;-1.838;2023-11-22T08:01:57;17.47;;;7.33;;
55879;SDS011;41802;51.564;-1.838;2023-11-22T08:04:27;14.13;;;5.97;;
55879;SDS011;41802;51.564;-1.838;2023-11-22T08:07:00;17.52;;;6.47;;
55879;SDS011;41802;51.564;-1.838;2023-11-22T08:09:28;17.48;;;6.70;;
55879;SDS011;41802;51.564;-1.838;2023-11-22T08:11:59;16.65;;;6.88;;
55879;SDS011;41802;51.564;-1.838;2023-11-22T08:14:31;23.23;;;6.93;;
55879;SDS011;41802;51.564;-1.838;2023-11-22T08:17:00;16.00;;;6.07;;
55879;SDS011;41802;51.564;-1.838;2023-11-22T08:19:28;18.42;;;6.82;;
55879;SDS011;41802;51.564;-1.838;2023-11-22T08:21:56;16.20;;;6.38;;
55879;SDS011;41802;51.564;-1.838;2023-11-22T08:24:25;18.75;;;6.25;;
55879;SDS011;41802;51.564;-1.838;2023-11-22T08:26:53;19.23;;;6.70;;
55879;SDS011;41802;51.564;-1.838;2023-11-22T08:29:21;17.83;;;6.45;;
55879;SDS011;41802;51.564;-1.838;2023-11-22T08:31:49;14.52;;;6.30;;
55879;SDS011;41802;51.564;-1.838;2023-11-22T08:34:17;16.48;;;6.18;;
55879;SDS011;41802;51.564;-1.838;2023-11-22T08:36:45;18.80;;;5.72;;
55879;SDS011;41802;51.564;-1.838;2023-11-22T08:39:12;17.53;;;6.77;;
55879;SDS011;41802;51.564;-1.838;2023-11-22T08:41:41;15.02;;;5.38;;
55879;SDS011;41802;51.564;-1.838;2023-11-22T08:44:09;17.13;;;6.13;;
55879;SDS011;41802;51.564;-1.838;2023-11-22T08:46:37;13.35;;;5.90;;
55879;SDS011;41802;51.564;-1.838;2023-11-22T08:49:05;15.63;;;6.20;;
55879;SDS011;41802;51.564;-1.838;2023-11-22T08:51:33;16.87;;;6.07;;
55879;SDS011;41802;51.564;-1.838;2023-11-22T08:54:00;17.15;;;6.40;;
55879;SDS011;41802;51.564;-1.838;2023-11-22T08:56:28;15.80;;;5.93;;
55879;SDS011;41802;51.564;-1.838;2023-11-22T08:58:57;17.00;;;7.32;;
55879;SDS011;41802;51.564;-1.838;2023-11-22T09:01:25;21.65;;;7.15;;
55879;SDS011;41802;51.564;-1.838;2023-11-22T09:03:53;19.30;;;6.17;;
55879;SDS011;41802;51.564;-1.838;2023-11-22T09:06:21;15.00;;;6.00;;
55879;SDS011;41802;51.564;-1.838;2023-11-22T09:08:50;19.52;;;6.70;;
55879;SDS011;41802;51.564;-1.838;2023-11-22T09:11:18;16.80;;;6.72;;
55879;SDS011;41802;51.564;-1.838;2023-11-22T09:13:49;13.50;;;5.50;;
55879;SDS011;41802;51.564;-1.838;2023-11-22T09:16:18;14.93;;;5.13;;
55879;SDS011;41802;51.564;-1.838;2023-11-22T09:18:48;14.88;;;5.70;;
55879;SDS011;41802;51.564;-1.838;2023-11-22T09:21:16;14.15;;;5.70;;
55879;SDS011;41802;51.564;-1.838;2023-11-22T09:23:44;15.30;;;4.97;;
55879;SDS011;41802;51.564;-1.838;2023-11-22T09:26:14;11.57;;;4.68;;
55879;SDS011;41802;51.564;-1.838;2023-11-22T09:28:42;15.20;;;4.93;;
55879;SDS011;41802;51.564;-1.838;2023-11-22T09:31:09;15.98;;;5.28;;
55879;SDS011;41802;51.564;-1.838;2023-11-22T09:33:41;10.75;;;4.80;;
55879;SDS011;41802;51.564;-1.838;2023-11-22T09:36:09;11.77;;;4.00;;
55879;SDS011;41802;51.564;-1.838;2023-11-22T09:38:37;11.85;;;4.30;;
55879;SDS011;41802;51.564;-1.838;2023-11-22T09:41:05;13.17;;;4.40;;
55879;SDS011;41802;51.564;-1.838;2023-11-22T09:43:34;12.68;;;3.67;;
55879;SDS011;41802;51.564;-1.838;2023-11-22T09:46:02;11.25;;;4.93;;
55879;SDS011;41802;51.564;-1.838;2023-11-22T09:48:31;9.35;;;3.45;;
55879;SDS011;41802;51.564;-1.838;2023-11-22T09:51:02;12.75;;;4.53;;
55879;SDS011;41802;51.564;-1.838;2023-11-22T09:53:31;12.80;;;3.73;;
55879;SDS011;41802;51.564;-1.838;2023-11-22T09:56:00;10.75;;;3.58;;
55879;SDS011;41802;51.564;-1.838;2023-11-22T09:58:29;9.98;;;4.03;;
55879;SDS011;41802;51.564;-1.838;2023-11-22T10:00:57;9.23;;;3.42;;
55879;SDS011;41802;51.564;-1.838;2023-11-22T10:03:25;11.93;;;3.90;;
55879;SDS011;41802;51.564;-1.838;2023-11-22T10:05:56;11.87;;;3.97;;
55879;SDS011;41802;51.564;-1.838;2023-11-22T10:08:26;12.48;;;3.75;;
55879;SDS011;41802;51.564;-1.838;2023-11-22T10:10:58;10.18;;;3.25;;
55879;SDS011;41802;51.564;-1.838;2023-11-22T10:13:26;10.55;;;4.07;;
55879;SDS011;41802;51.564;-1.838;2023-11-22T10:15:59;10.57;;;4.25;;
55879;SDS011;41802;51.564;-1.838;2023-11-22T10:18:38;12.63;;;4.63;;
55879;SDS011;41802;51.564;-1.838;2023-11-22T10:21:17;12.13;;;4.28;;
55879;SDS011;41802;51.564;-1.838;2023-11-22T10:23:47;11.45;;;4.80;;
55879;SDS011;41802;51.564;-1.838;2023-11-22T10:26:15;12.82;;;4.10;;
55879;SDS011;41802;51.564;-1.838;2023-11-22T10:28:43;13.55;;;4.32;;
55879;SDS011;41802;51.564;-1.838;2023-11-22T10:31:11;10.87;;;4.47;;
55879;SDS011;41802;51.564;-1.838;2023-11-22T10:33:39;13.07;;;4.93;;
55879;SDS011;41802;51.564;-1.838;2023-11-22T10:36:09;20.40;;;4.78;;
55879;SDS011;41802;51.564;-1.838;2023-11-22T10:38:36;10.48;;;3.38;;
55879;SDS011;41802;51.564;-1.838;2023-11-22T10:41:06;10.30;;;3.70;;
55879;SDS011;41802;51.564;-1.838;2023-11-22T10:43:34;9.70;;;3.93;;
55879;SDS011;41802;51.564;-1.838;2023-11-22T10:46:03;11.25;;;3.95;;
55879;SDS011;41802;51.564;-1.838;2023-11-22T10:48:31;12.05;;;3.95;;
55879;SDS011;41802;51.564;-1.838;2023-11-22T10:51:00;10.90;;;3.60;;
55879;SDS011;41802;51.564;-1.838;2023-11-22T10:53:31;13.48;;;3.92;;
55879;SDS011;41802;51.564;-1.838;2023-11-22T10:56:03;11.57;;;4.40;;
55879;SDS011;41802;51.564;-1.838;2023-11-22T10:58:34;11.23;;;3.97;;
55879;SDS011;41802;51.564;-1.838;2023-11-22T11:01:04;12.23;;;4.28;;
55879;SDS011;41802;51.564;-1.838;2023-11-22T11:03:34;9.65;;;3.45;;
55879;SDS011;41802;51.564;-1.838;2023-11-22T11:06:08;15.80;;;4.05;;
55879;SDS011;41802;51.564;-1.838;2023-11-22T11:08:37;13.67;;;3.50;;
55879;SDS011;41802;51.564;-1.838;2023-11-22T11:11:05;12.55;;;3.90;;
55879;SDS011;41802;51.564;-1.838;2023-11-22T11:13:54;11.23;;;2.80;;
55879;SDS011;41802;51.564;-1.838;2023-11-22T11:16:23;12.18;;;3.25;;
55879;SDS011;41802;51.564;-1.838;2023-11-22T11:18:50;12.38;;;2.90;;
55879;SDS011;41802;51.564;-1.838;2023-11-22T11:21:19;9.63;;;2.63;;
55879;SDS011;41802;51.564;-1.838;2023-11-22T11:23:50;13.75;;;2.90;;
55879;SDS011;41802;51.564;-1.838;2023-11-22T11:26:24;10.55;;;2.83;;
55879;SDS011;41802;51.564;-1.838;2023-11-22T11:28:54;10.30;;;2.85;;
55879;SDS011;41802;51.564;-1.838;2023-11-22T11:31:22;8.98;;;2.50;;
55879;SDS011;41802;51.564;-1.838;2023-11-22T11:33:53;8.53;;;2.43;;
55879;SDS011;41802;51.564;-1.838;2023-11-22T11:36:22;12.70;;;3.00;;
55879;SDS011;41802;51.564;-1.838;2023-11-22T11:38:51;8.48;;;3.85;;
55879;SDS011;41802;51.564;-1.838;2023-11-22T11:41:23;8.13;;;3.05;;
55879;SDS011;41802;51.564;-1.838;2023-11-22T11:43:56;10.77;;;3.38;;
55879;SDS011;41802;51.564;-1.838;2023-11-22T11:46:29;11.53;;;3.20;;
55879;SDS011;41802;51.564;-1.838;2023-11-22T11:48:57;8.52;;;3.05;;
55879;SDS011;41802;51.564;-1.838;2023-11-22T11:51:25;10.05;;;2.90;;
55879;SDS011;41802;51.564;-1.838;2023-11-22T11:53:53;10.27;;;3.05;;
55879;SDS011;41802;51.564;-1.838;2023-11-22T11:56:22;10.65;;;2.92;;
55879;SDS011;41802;51.564;-1.838;2023-11-22T11:58:55;9.47;;;2.83;;
55879;SDS011;41802;51.564;-1.838;2023-11-22T12:01:27;9.70;;;3.00;;
55879;SDS011;41802;51.564;-1.838;2023-11-22T12:03:56;8.60;;;2.70;;
55879;SDS011;41802;51.564;-1.838;2023-11-22T12:06:24;9.50;;;3.10;;
55879;SDS011;41802;51.564;-1.838;2023-11-22T12:08:52;9.70;;;2.92;;
55879;SDS011;41802;51.564;-1.838;2023-11-22T12:11:20;8.80;;;2.80;;
55879;SDS011;41802;51.564;-1.838;2023-11-22T12:13:48;9.18;;;2.38;;
55879;SDS011;41802;51.564;-1.838;2023-11-22T12:16:27;10.27;;;3.28;;
55879;SDS011;41802;51.564;-1.838;2023-11-22T12:18:54;8.93;;;2.47;;
55879;SDS011;41802;51.564;-1.838;2023-11-22T12:21:23;8.70;;;2.60;;
55879;SDS011;41802;51.564;-1.838;2023-11-22T12:23:52;11.27;;;3.33;;
55879;SDS011;41802;51.564;-1.838;2023-11-22T12:26:20;12.75;;;2.42;;
55879;SDS011;41802;51.564;-1.838;2023-11-22T12:28:48;11.85;;;2.90;;
55879;SDS011;41802;51.564;-1.838;2023-11-22T12:31:30;10.48;;;2.53;;
55879;SDS011;41802;51.564;-1.838;2023-11-22T12:34:03;6.30;;;2.10;;
55879;SDS011;41802;51.564;-1.838;2023-11-22T12:36:30;9.50;;;2.63;;
55879;SDS011;41802;51.564;-1.838;2023-11-22T12:38:59;10.07;;;2.90;;
55879;SDS011;41802;51.564;-1.838;2023-11-22T12:41:27;8.27;;;2.60;;
55879;SDS011;41802;51.564;-1.838;2023-11-22T12:44:02;9.70;;;3.00;;
55879;SDS011;41802;51.564;-1.838;2023-11-22T12:49:14;7.37;;;2.80;;
55879;SDS011;41802;51.564;-1.838;2023-11-22T12:51:45;14.30;;;3.10;;
55879;SDS011;41802;51.564;-1.838;2023-11-22T12:54:13;8.52;;;2.70;;
55879;SDS011;41802;51.564;-1.838;2023-11-22T12:56:41;7.72;;;2.65;;
55879;SDS011;41802;51.564;-1.838;2023-11-22T12:59:09;8.77;;;2.33;;
55879;SDS011;41802;51.564;-1.838;2023-11-22T13:01:38;12.00;;;2.80;;
55879;SDS011;41802;51.564;-1.838;2023-11-22T13:04:07;7.28;;;2.42;;
55879;SDS011;41802;51.564;-1.838;2023-11-22T13:06:37;9.98;;;2.50;;
55879;SDS011;41802;51.564;-1.838;2023-11-22T13:09:05;7.47;;;2.20;;
55879;SDS011;41802;51.564;-1.838;2023-11-22T13:11:33;8.07;;;2.40;;
55879;SDS011;41802;51.564;-1.838;2023-11-22T13:14:01;11.37;;;2.70;;
55879;SDS011;41802;51.564;-1.838;2023-11-22T13:16:29;9.57;;;2.40;;
55879;SDS011;41802;51.564;-1.838;2023-11-22T13:18:57;10.52;;;2.95;;
55879;SDS011;41802;51.564;-1.838;2023-11-22T13:21:24;13.00;;;2.47;;
55879;SDS011;41802;51.564;-1.838;2023-11-22T13:23:54;13.48;;;2.97;;
55879;SDS011;41802;51.564;-1.838;2023-11-22T13:26:22;8.97;;;2.40;;
55879;SDS011;41802;51.564;-1.838;2023-11-22T13:28:50;8.85;;;2.45;;
55879;SDS011;41802;51.564;-1.838;2023-11-22T13:31:20;9.88;;;2.67;;
55879;SDS011;41802;51.564;-1.838;2023-11-22T13:33:48;7.57;;;2.47;;
55879;SDS011;41802;51.564;-1.838;2023-11-22T13:36:16;8.30;;;2.70;;
55879;SDS011;41802;51.564;-1.838;2023-11-22T13:38:44;9.40;;;3.50;;
55879;SDS011;41802;51.564;-1.838;2023-11-22T13:41:13;12.40;;;2.97;;
55879;SDS011;41802;51.564;-1.838;2023-11-22T13:43:41;9.80;;;3.28;;
55879;SDS011;41802;51.564;-1.838;2023-11-22T13:46:08;9.88;;;3.10;;
55879;SDS011;41802;51.564;-1.838;2023-11-22T13:48:38;9.75;;;3.83;;
55879;SDS011;41802;51.564;-1.838;2023-11-22T13:51:06;9.73;;;2.50;;
55879;SDS011;41802;51.564;-1.838;2023-11-22T13:53:37;8.13;;;2.83;;
55879;SDS011;41802;51.564;-1.838;2023-11-22T13:56:10;7.65;;;2.67;;
55879;SDS011;41802;51.564;-1.838;2023-11-22T13:58:41;13.45;;;3.70;;
55879;SDS011;41802;51.564;-1.838;2023-11-22T14:01:08;8.73;;;2.95;;
55879;SDS011;41802;51.564;-1.838;2023-11-22T14:03:44;8.67;;;2.83;;
55879;SDS011;41802;51.564;-1.838;2023-11-22T14:06:12;8.50;;;2.97;;
55879;SDS011;41802;51.564;-1.838;2023-11-22T14:08:42;12.77;;;2.85;;
55879;SDS011;41802;51.564;-1.838;2023-11-22T14:11:12;8.35;;;2.58;;
55879;SDS011;41802;51.564;-1.838;2023-11-22T14:13:41;9.82;;;3.30;;
55879;SDS011;41802;51.564;-1.838;2023-11-22T14:16:09;11.63;;;3.10;;
55879;SDS011;41802;51.564;-1.838;2023-11-22T14:18:37;13.93;;;3.40;;
55879;SDS011;41802;51.564;-1.838;2023-11-22T14:21:05;9.73;;;3.30;;
55879;SDS011;41802;51.564;-1.838;2023-11-22T14:23:33;8.85;;;3.15;;
55879;SDS011;41802;51.564;-1.838;2023-11-22T14:26:02;10.18;;;4.10;;
55879;SDS011;41802;51.564;-1.838;2023-11-22T14:28:30;11.03;;;3.13;;
55879;SDS011;41802;51.564;-1.838;2023-11-22T14:31:00;12.75;;;4.10;;
55879;SDS011;41802;51.564;-1.838;2023-11-22T14:33:30;10.32;;;3.80;;
55879;SDS011;41802;51.564;-1.838;2023-11-22T14:35:58;11.90;;;4.10;;